sensor_id;sensor_type;location;lat;lon;timestamp;P1;durP1;ratioP1;P2;durP2;ratioP2
8260;SDS011;64115;50.170;8.242;2023-04-25T00:00:59;7.97;;;7.27;;
8260;SDS011;64115;50.170;8.242;2023-04-25T00:03:27;8.60;;;7.73;;
8260;SDS011;64115;50.170;8.242;2023-04-25T00:05:54;9.97;;;8.20;;
8260;SDS011;64115;50.170;8.242;2023-04-25T00:08:22;9.80;;;8.30;;
8260;SDS011;64115;50.170;8.242;2023-04-25T00:10:50;8.97;;;8.07;;
8260;SDS011;64115;50.170;8.242;2023-04-25T00:13:17;8.67;;;7.90;;
8260;SDS011;64115;50.170;8.242;2023-04-25T00:15:45;10.30;;;8.93;;
8260;SDS011;64115;50.170;8.242;2023-04-25T00:18:13;8.90;;;8.00;;
8260;SDS011;64115;50.170;8.242;2023-04-25T00:20:40;9.67;;;8.70;;
8260;SDS011;64115;50.170;8.242;2023-04-25T00:23:11;9.57;;;8.77;;
8260;SDS011;64115;50.170;8.242;2023-04-25T00:25:42;9.20;;;8.27;;
8260;SDS011;64115;50.170;8.242;2023-04-25T00:28:09;9.33;;;8.40;;
8260;SDS011;64115;50.170;8.242;2023-04-25T00:30:37;9.87;;;8.87;;
8260;SDS011;64115;50.170;8.242;2023-04-25T00:33:06;10.53;;;8.97;;
8260;SDS011;64115;50.170;8.242;2023-04-25T00:35:34;11.17;;;9.00;;
8260;SDS011;64115;50.170;8.242;2023-04-25T00:38:01;9.53;;;8.60;;
8260;SDS011;64115;50.170;8.242;2023-04-25T00:40:28;10.50;;;8.93;;
8260;SDS011;64115;50.170;8.242;2023-04-25T00:42:55;8.17;;;7.40;;
8260;SDS011;64115;50.170;8.242;2023-04-25T00:45:23;8.60;;;7.80;;
8260;SDS011;64115;50.170;8.242;2023-04-25T00:47:55;8.77;;;7.80;;
8260;SDS011;64115;50.170;8.242;2023-04-25T00:50:24;8.60;;;7.60;;
8260;SDS011;64115;50.170;8.242;2023-04-25T00:52:51;9.17;;;8.00;;
8260;SDS011;64115;50.170;8.242;2023-04-25T00:55:18;9.30;;;8.50;;
8260;SDS011;64115;50.170;8.242;2023-04-25T00:57:46;11.07;;;8.63;;
8260;SDS011;64115;50.170;8.242;2023-04-25T01:00:13;12.20;;;8.00;;
8260;SDS011;64115;50.170;8.242;2023-04-25T01:02:41;9.53;;;8.60;;
8260;SDS011;64115;50.170;8.242;2023-04-25T01:05:08;9.43;;;8.53;;
8260;SDS011;64115;50.170;8.242;2023-04-25T01:07:37;9.10;;;8.20;;
8260;SDS011;64115;50.170;8.242;2023-04-25T01:10:04;9.70;;;8.67;;
8260;SDS011;64115;50.170;8.242;2023-04-25T01:12:32;9.83;;;8.80;;
8260;SDS011;64115;50.170;8.242;2023-04-25T01:15:00;9.00;;;8.10;;
8260;SDS011;64115;50.170;8.242;2023-04-25T01:17:28;9.20;;;8.30;;
8260;SDS011;64115;50.170;8.242;2023-04-25T01:19:56;10.53;;;8.80;;
8260;SDS011;64115;50.170;8.242;2023-04-25T01:22:25;9.77;;;8.77;;
8260;SDS011;64115;50.170;8.242;2023-04-25T01:24:52;12.90;;;9.73;;
8260;SDS011;64115;50.170;8.242;2023-04-25T01:27:20;11.27;;;8.93;;
8260;SDS011;64115;50.170;8.242;2023-04-25T01:29:47;10.53;;;9.50;;
8260;SDS011;64115;50.170;8.242;2023-04-25T01:32:16;12.10;;;9.30;;
8260;SDS011;64115;50.170;8.242;2023-04-25T01:34:43;10.77;;;9.47;;
8260;SDS011;64115;50.170;8.242;2023-04-25T01:37:11;13.47;;;10.67;;
8260;SDS011;64115;50.170;8.242;2023-04-25T01:39:40;14.47;;;10.37;;
8260;SDS011;64115;50.170;8.242;2023-04-25T01:42:07;12.50;;;9.87;;
8260;SDS011;64115;50.170;8.242;2023-04-25T01:44:34;12.87;;;10.20;;
8260;SDS011;64115;50.170;8.242;2023-04-25T01:47:01;13.83;;;10.73;;
8260;SDS011;64115;50.170;8.242;2023-04-25T01:49:28;12.33;;;9.63;;
8260;SDS011;64115;50.170;8.242;2023-04-25T01:51:55;12.73;;;10.47;;
8260;SDS011;64115;50.170;8.242;2023-04-25T01:54:23;14.87;;;11.07;;
8260;SDS011;64115;50.170;8.242;2023-04-25T01:56:51;13.90;;;10.27;;
8260;SDS011;64115;50.170;8.242;2023-04-25T01:59:18;12.23;;;10.53;;
8260;SDS011;64115;50.170;8.242;2023-04-25T02:01:47;15.07;;;10.53;;
8260;SDS011;64115;50.170;8.242;2023-04-25T02:04:14;12.90;;;10.27;;
8260;SDS011;64115;50.170;8.242;2023-04-25T02:06:41;11.20;;;9.87;;
8260;SDS011;64115;50.170;8.242;2023-04-25T02:09:08;13.97;;;10.43;;
8260;SDS011;64115;50.170;8.242;2023-04-25T02:11:35;15.17;;;9.93;;
8260;SDS011;64115;50.170;8.242;2023-04-25T02:14:04;12.23;;;9.90;;
8260;SDS011;64115;50.170;8.242;2023-04-25T02:16:31;15.30;;;9.57;;
8260;SDS011;64115;50.170;8.242;2023-04-25T02:18:58;14.10;;;10.13;;
8260;SDS011;64115;50.170;8.242;2023-04-25T02:21:25;15.60;;;9.33;;
8260;SDS011;64115;50.170;8.242;2023-04-25T02:23:52;10.80;;;9.70;;
8260;SDS011;64115;50.170;8.242;2023-04-25T02:26:19;14.10;;;9.27;;
8260;SDS011;64115;50.170;8.242;2023-04-25T02:28:47;13.97;;;9.47;;
8260;SDS011;64115;50.170;8.242;2023-04-25T02:31:16;10.80;;;9.50;;
8260;SDS011;64115;50.170;8.242;2023-04-25T02:33:43;11.87;;;9.27;;
8260;SDS011;64115;50.170;8.242;2023-04-25T02:36:11;11.33;;;8.67;;
8260;SDS011;64115;50.170;8.242;2023-04-25T02:38:38;14.73;;;8.57;;
8260;SDS011;64115;50.170;8.242;2023-04-25T02:41:05;11.27;;;8.93;;
8260;SDS011;64115;50.170;8.242;2023-04-25T02:43:32;9.90;;;8.50;;
8260;SDS011;64115;50.170;8.242;2023-04-25T02:45:59;12.20;;;8.70;;
8260;SDS011;64115;50.170;8.242;2023-04-25T02:48:28;15.13;;;9.50;;
8260;SDS011;64115;50.170;8.242;2023-04-25T02:50:55;13.87;;;9.47;;
8260;SDS011;64115;50.170;8.242;2023-04-25T02:53:22;12.20;;;8.90;;
8260;SDS011;64115;50.170;8.242;2023-04-25T02:55:49;12.20;;;9.13;;
8260;SDS011;64115;50.170;8.242;2023-04-25T02:58:17;13.07;;;9.27;;
8260;SDS011;64115;50.170;8.242;2023-04-25T03:00:45;12.40;;;8.53;;
8260;SDS011;64115;50.170;8.242;2023-04-25T03:03:11;16.40;;;8.60;;
8260;SDS011;64115;50.170;8.242;2023-04-25T03:05:41;15.40;;;9.10;;
8260;SDS011;64115;50.170;8.242;2023-04-25T03:08:08;12.63;;;8.13;;
8260;SDS011;64115;50.170;8.242;2023-04-25T03:10:35;12.47;;;8.30;;
8260;SDS011;64115;50.170;8.242;2023-04-25T03:13:02;12.37;;;8.10;;
8260;SDS011;64115;50.170;8.242;2023-04-25T03:15:29;14.07;;;7.93;;
8260;SDS011;64115;50.170;8.242;2023-04-25T03:17:57;10.20;;;8.23;;
8260;SDS011;64115;50.170;8.242;2023-04-25T03:20:24;13.70;;;8.00;;
8260;SDS011;64115;50.170;8.242;2023-04-25T03:22:53;13.03;;;7.93;;
8260;SDS011;64115;50.170;8.242;2023-04-25T03:25:20;12.33;;;8.03;;
8260;SDS011;64115;50.170;8.242;2023-04-25T03:27:47;9.37;;;7.30;;
8260;SDS011;64115;50.170;8.242;2023-04-25T03:30:14;12.93;;;7.07;;
8260;SDS011;64115;50.170;8.242;2023-04-25T03:32:41;11.37;;;7.10;;
8260;SDS011;64115;50.170;8.242;2023-04-25T03:35:08;10.23;;;6.73;;
8260;SDS011;64115;50.170;8.242;2023-04-25T03:37:35;12.20;;;6.83;;
8260;SDS011;64115;50.170;8.242;2023-04-25T03:40:05;10.47;;;6.87;;
8260;SDS011;64115;50.170;8.242;2023-04-25T03:42:33;10.50;;;7.17;;
8260;SDS011;64115;50.170;8.242;2023-04-25T03:45:00;10.80;;;6.70;;
8260;SDS011;64115;50.170;8.242;2023-04-25T03:47:27;9.43;;;6.37;;
8260;SDS011;64115;50.170;8.242;2023-04-25T03:49:55;7.53;;;5.73;;
8260;SDS011;64115;50.170;8.242;2023-04-25T03:52:22;10.57;;;6.33;;
8260;SDS011;64115;50.170;8.242;2023-04-25T03:54:49;13.07;;;6.67;;
8260;SDS011;64115;50.170;8.242;2023-04-25T03:57:18;8.40;;;6.07;;
8260;SDS011;64115;50.170;8.242;2023-04-25T03:59:45;12.20;;;6.70;;
8260;SDS011;64115;50.170;8.242;2023-04-25T04:02:12;15.00;;;6.13;;
8260;SDS011;64115;50.170;8.242;2023-04-25T04:04:39;13.50;;;6.60;;
8260;SDS011;64115;50.170;8.242;2023-04-25T04:07:09;8.90;;;6.13;;
8260;SDS011;64115;50.170;8.242;2023-04-25T04:09:36;13.90;;;6.27;;
8260;SDS011;64115;50.170;8.242;2023-04-25T04:12:03;11.70;;;6.50;;
8260;SDS011;64115;50.170;8.242;2023-04-25T04:14:32;13.27;;;6.77;;
8260;SDS011;64115;50.170;8.242;2023-04-25T04:16:59;12.23;;;6.83;;
8260;SDS011;64115;50.170;8.242;2023-04-25T04:19:26;10.07;;;6.90;;
8260;SDS011;64115;50.170;8.242;2023-04-25T04:21:53;13.33;;;7.03;;
8260;SDS011;64115;50.170;8.242;2023-04-25T04:24:20;10.33;;;6.63;;
8260;SDS011;64115;50.170;8.242;2023-04-25T04:26:47;14.47;;;6.83;;
8260;SDS011;64115;50.170;8.242;2023-04-25T04:29:15;13.63;;;6.77;;
8260;SDS011;64115;50.170;8.242;2023-04-25T04:31:48;12.40;;;6.57;;
8260;SDS011;64115;50.170;8.242;2023-04-25T04:34:15;11.53;;;6.63;;
8260;SDS011;64115;50.170;8.242;2023-04-25T04:36:43;14.90;;;7.10;;
8260;SDS011;64115;50.170;8.242;2023-04-25T04:39:11;16.00;;;7.50;;
8260;SDS011;64115;50.170;8.242;2023-04-25T04:41:38;15.50;;;7.53;;
8260;SDS011;64115;50.170;8.242;2023-04-25T04:44:05;9.97;;;7.30;;
8260;SDS011;64115;50.170;8.242;2023-04-25T04:46:33;16.37;;;7.57;;
8260;SDS011;64115;50.170;8.242;2023-04-25T04:49:07;15.30;;;7.40;;
8260;SDS011;64115;50.170;8.242;2023-04-25T04:51:34;18.00;;;7.73;;
8260;SDS011;64115;50.170;8.242;2023-04-25T04:54:02;14.67;;;6.70;;
8260;SDS011;64115;50.170;8.242;2023-04-25T04:56:29;13.40;;;7.43;;
8260;SDS011;64115;50.170;8.242;2023-04-25T04:58:56;13.77;;;6.83;;
8260;SDS011;64115;50.170;8.242;2023-04-25T05:01:24;19.87;;;7.23;;
8260;SDS011;64115;50.170;8.242;2023-04-25T05:03:52;14.10;;;7.00;;
8260;SDS011;64115;50.170;8.242;2023-04-25T05:06:26;15.20;;;7.50;;
8260;SDS011;64115;50.170;8.242;2023-04-25T05:08:55;14.73;;;7.30;;
8260;SDS011;64115;50.170;8.242;2023-04-25T05:11:22;15.43;;;7.23;;
8260;SDS011;64115;50.170;8.242;2023-04-25T05:13:51;13.63;;;6.73;;
8260;SDS011;64115;50.170;8.242;2023-04-25T05:16:18;14.20;;;6.97;;
8260;SDS011;64115;50.170;8.242;2023-04-25T05:18:46;13.07;;;6.67;;
8260;SDS011;64115;50.170;8.242;2023-04-25T05:21:14;13.73;;;6.33;;
8260;SDS011;64115;50.170;8.242;2023-04-25T05:23:42;14.50;;;6.70;;
8260;SDS011;64115;50.170;8.242;2023-04-25T05:26:09;12.60;;;7.03;;
8260;SDS011;64115;50.170;8.242;2023-04-25T05:28:38;11.50;;;6.53;;
8260;SDS011;64115;50.170;8.242;2023-04-25T05:31:06;13.13;;;6.20;;
8260;SDS011;64115;50.170;8.242;2023-04-25T05:33:33;12.60;;;6.10;;
8260;SDS011;64115;50.170;8.242;2023-04-25T05:36:00;14.50;;;7.13;;
8260;SDS011;64115;50.170;8.242;2023-04-25T05:38:27;16.83;;;7.17;;
8260;SDS011;64115;50.170;8.242;2023-04-25T05:40:56;10.57;;;6.53;;
8260;SDS011;64115;50.170;8.242;2023-04-25T05:43:23;14.53;;;6.70;;
8260;SDS011;64115;50.170;8.242;2023-04-25T05:45:54;14.87;;;7.10;;
8260;SDS011;64115;50.170;8.242;2023-04-25T05:48:21;12.53;;;6.87;;
8260;SDS011;64115;50.170;8.242;2023-04-25T05:50:48;13.30;;;6.63;;
8260;SDS011;64115;50.170;8.242;2023-04-25T05:53:16;9.97;;;6.60;;
8260;SDS011;64115;50.170;8.242;2023-04-25T05:55:45;16.50;;;6.80;;
8260;SDS011;64115;50.170;8.242;2023-04-25T05:58:28;12.17;;;6.20;;
8260;SDS011;64115;50.170;8.242;2023-04-25T06:00:56;9.33;;;6.07;;
8260;SDS011;64115;50.170;8.242;2023-04-25T06:03:23;10.30;;;5.40;;
8260;SDS011;64115;50.170;8.242;2023-04-25T06:05:51;12.17;;;5.80;;
8260;SDS011;64115;50.170;8.242;2023-04-25T06:08:18;12.13;;;6.13;;
8260;SDS011;64115;50.170;8.242;2023-04-25T06:10:45;9.20;;;6.13;;
8260;SDS011;64115;50.170;8.242;2023-04-25T06:13:12;9.90;;;5.47;;
8260;SDS011;64115;50.170;8.242;2023-04-25T06:15:41;9.77;;;5.43;;
8260;SDS011;64115;50.170;8.242;2023-04-25T06:18:09;8.07;;;5.13;;
8260;SDS011;64115;50.170;8.242;2023-04-25T06:20:36;8.73;;;4.93;;
8260;SDS011;64115;50.170;8.242;2023-04-25T06:23:03;8.37;;;4.80;;
8260;SDS011;64115;50.170;8.242;2023-04-25T06:25:30;7.13;;;4.33;;
8260;SDS011;64115;50.170;8.242;2023-04-25T06:27:57;6.03;;;3.80;;
8260;SDS011;64115;50.170;8.242;2023-04-25T06:30:24;5.83;;;3.80;;
8260;SDS011;64115;50.170;8.242;2023-04-25T06:32:53;11.80;;;4.40;;
8260;SDS011;64115;50.170;8.242;2023-04-25T06:35:20;6.00;;;4.20;;
8260;SDS011;64115;50.170;8.242;2023-04-25T06:37:47;5.70;;;3.90;;
8260;SDS011;64115;50.170;8.242;2023-04-25T06:40:14;6.30;;;4.23;;
8260;SDS011;64115;50.170;8.242;2023-04-25T06:42:42;8.27;;;4.77;;
8260;SDS011;64115;50.170;8.242;2023-04-25T06:45:09;7.03;;;4.27;;
8260;SDS011;64115;50.170;8.242;2023-04-25T06:47:36;8.17;;;3.60;;
8260;SDS011;64115;50.170;8.242;2023-04-25T06:50:06;7.37;;;3.73;;
8260;SDS011;64115;50.170;8.242;2023-04-25T06:52:34;5.90;;;3.30;;
8260;SDS011;64115;50.170;8.242;2023-04-25T06:55:01;6.07;;;3.73;;
8260;SDS011;64115;50.170;8.242;2023-04-25T06:57:30;3.93;;;3.37;;
8260;SDS011;64115;50.170;8.242;2023-04-25T06:59:56;7.43;;;3.70;;
8260;SDS011;64115;50.170;8.242;2023-04-25T07:02:23;6.33;;;3.73;;
8260;SDS011;64115;50.170;8.242;2023-04-25T07:04:51;4.00;;;3.10;;
8260;SDS011;64115;50.170;8.242;2023-04-25T07:07:19;7.13;;;3.33;;
8260;SDS011;64115;50.170;8.242;2023-04-25T07:09:46;7.07;;;3.37;;
8260;SDS011;64115;50.170;8.242;2023-04-25T07:12:13;4.60;;;3.37;;
8260;SDS011;64115;50.170;8.242;2023-04-25T07:14:40;5.83;;;3.27;;
8260;SDS011;64115;50.170;8.242;2023-04-25T07:17:07;5.40;;;3.20;;
8260;SDS011;64115;50.170;8.242;2023-04-25T07:19:35;5.43;;;2.70;;
8260;SDS011;64115;50.170;8.242;2023-04-25T07:22:04;2.97;;;2.70;;
8260;SDS011;64115;50.170;8.242;2023-04-25T07:24:32;3.87;;;2.90;;
8260;SDS011;64115;50.170;8.242;2023-04-25T07:26:59;3.87;;;3.17;;
8260;SDS011;64115;50.170;8.242;2023-04-25T07:29:27;6.37;;;3.10;;
8260;SDS011;64115;50.170;8.242;2023-04-25T07:31:56;3.80;;;2.80;;
8260;SDS011;64115;50.170;8.242;2023-04-25T07:34:23;5.20;;;2.80;;
8260;SDS011;64115;50.170;8.242;2023-04-25T07:36:50;5.90;;;2.83;;
8260;SDS011;64115;50.170;8.242;2023-04-25T07:39:18;6.83;;;3.40;;
8260;SDS011;64115;50.170;8.242;2023-04-25T07:41:47;2.83;;;2.63;;
8260;SDS011;64115;50.170;8.242;2023-04-25T07:44:14;6.80;;;2.80;;
8260;SDS011;64115;50.170;8.242;2023-04-25T07:46:41;4.33;;;2.70;;
8260;SDS011;64115;50.170;8.242;2023-04-25T07:49:08;4.80;;;2.50;;
8260;SDS011;64115;50.170;8.242;2023-04-25T07:51:35;5.03;;;2.13;;
8260;SDS011;64115;50.170;8.242;2023-04-25T07:54:02;5.47;;;2.33;;
8260;SDS011;64115;50.170;8.242;2023-04-25T07:56:30;4.20;;;2.17;;
8260;SDS011;64115;50.170;8.242;2023-04-25T07:58:59;5.27;;;2.70;;
8260;SDS011;64115;50.170;8.242;2023-04-25T08:01:26;4.13;;;2.63;;
8260;SDS011;64115;50.170;8.242;2023-04-25T08:03:53;2.87;;;2.00;;
8260;SDS011;64115;50.170;8.242;2023-04-25T08:06:20;3.57;;;2.27;;
8260;SDS011;64115;50.170;8.242;2023-04-25T08:08:47;2.23;;;2.10;;
8260;SDS011;64115;50.170;8.242;2023-04-25T08:11:14;4.77;;;2.50;;
8260;SDS011;64115;50.170;8.242;2023-04-25T08:13:41;3.07;;;2.60;;
8260;SDS011;64115;50.170;8.242;2023-04-25T08:16:10;3.33;;;3.03;;
8260;SDS011;64115;50.170;8.242;2023-04-25T08:18:37;4.83;;;3.20;;
8260;SDS011;64115;50.170;8.242;2023-04-25T08:21:04;4.40;;;3.70;;
8260;SDS011;64115;50.170;8.242;2023-04-25T08:23:31;4.80;;;3.60;;
8260;SDS011;64115;50.170;8.242;2023-04-25T08:25:59;6.47;;;3.80;;
8260;SDS011;64115;50.170;8.242;2023-04-25T08:28:26;4.37;;;3.50;;
8260;SDS011;64115;50.170;8.242;2023-04-25T08:30:53;4.57;;;4.03;;
8260;SDS011;64115;50.170;8.242;2023-04-25T08:33:22;4.77;;;3.90;;
8260;SDS011;64115;50.170;8.242;2023-04-25T08:35:50;5.10;;;4.10;;
8260;SDS011;64115;50.170;8.242;2023-04-25T08:38:17;6.20;;;3.77;;
8260;SDS011;64115;50.170;8.242;2023-04-25T08:40:44;5.60;;;3.87;;
8260;SDS011;64115;50.170;8.242;2023-04-25T08:43:17;5.60;;;3.93;;
8260;SDS011;64115;50.170;8.242;2023-04-25T08:45:45;5.87;;;4.20;;
8260;SDS011;64115;50.170;8.242;2023-04-25T08:48:13;6.43;;;4.17;;
8260;SDS011;64115;50.170;8.242;2023-04-25T08:50:44;5.73;;;4.30;;
8260;SDS011;64115;50.170;8.242;2023-04-25T08:53:16;6.77;;;4.30;;
8260;SDS011;64115;50.170;8.242;2023-04-25T08:55:47;6.17;;;4.70;;
8260;SDS011;64115;50.170;8.242;2023-04-25T08:58:16;5.80;;;4.33;;
8260;SDS011;64115;50.170;8.242;2023-04-25T09:00:45;5.50;;;4.00;;
8260;SDS011;64115;50.170;8.242;2023-04-25T09:03:13;7.63;;;4.17;;
8260;SDS011;64115;50.170;8.242;2023-04-25T09:05:40;5.70;;;4.30;;
8260;SDS011;64115;50.170;8.242;2023-04-25T09:08:09;5.13;;;3.80;;
8260;SDS011;64115;50.170;8.242;2023-04-25T09:10:37;4.57;;;4.17;;
8260;SDS011;64115;50.170;8.242;2023-04-25T09:13:05;4.00;;;3.63;;
8260;SDS011;64115;50.170;8.242;2023-04-25T09:15:46;6.03;;;3.83;;
8260;SDS011;64115;50.170;8.242;2023-04-25T09:18:21;4.80;;;3.63;;
8260;SDS011;64115;50.170;8.242;2023-04-25T09:20:51;7.80;;;3.93;;
8260;SDS011;64115;50.170;8.242;2023-04-25T09:23:21;5.97;;;4.03;;
8260;SDS011;64115;50.170;8.242;2023-04-25T09:25:50;4.83;;;4.10;;
8260;SDS011;64115;50.170;8.242;2023-04-25T09:28:22;6.90;;;4.20;;
8260;SDS011;64115;50.170;8.242;2023-04-25T09:30:54;7.27;;;4.40;;
8260;SDS011;64115;50.170;8.242;2023-04-25T09:33:23;8.70;;;4.33;;
8260;SDS011;64115;50.170;8.242;2023-04-25T09:35:56;5.83;;;4.40;;
8260;SDS011;64115;50.170;8.242;2023-04-25T09:38:31;5.87;;;4.40;;
8260;SDS011;64115;50.170;8.242;2023-04-25T09:40:59;6.57;;;4.57;;
8260;SDS011;64115;50.170;8.242;2023-04-25T09:43:27;6.37;;;4.57;;
8260;SDS011;64115;50.170;8.242;2023-04-25T09:45:54;4.37;;;4.00;;
8260;SDS011;64115;50.170;8.242;2023-04-25T09:48:24;5.93;;;4.33;;
8260;SDS011;64115;50.170;8.242;2023-04-25T09:51:05;6.57;;;4.30;;
8260;SDS011;64115;50.170;8.242;2023-04-25T09:53:36;6.00;;;3.80;;
8260;SDS011;64115;50.170;8.242;2023-04-25T09:56:05;6.50;;;4.00;;
8260;SDS011;64115;50.170;8.242;2023-04-25T09:58:34;5.87;;;3.17;;
8260;SDS011;64115;50.170;8.242;2023-04-25T10:01:03;4.83;;;3.43;;
8260;SDS011;64115;50.170;8.242;2023-04-25T10:03:33;3.90;;;3.30;;
8260;SDS011;64115;50.170;8.242;2023-04-25T10:06:01;5.00;;;3.40;;
8260;SDS011;64115;50.170;8.242;2023-04-25T10:08:31;5.10;;;3.50;;
8260;SDS011;64115;50.170;8.242;2023-04-25T10:11:02;6.30;;;3.00;;
8260;SDS011;64115;50.170;8.242;2023-04-25T10:13:30;4.67;;;3.30;;
8260;SDS011;64115;50.170;8.242;2023-04-25T10:15:58;3.67;;;2.97;;
8260;SDS011;64115;50.170;8.242;2023-04-25T10:18:27;4.73;;;3.10;;
8260;SDS011;64115;50.170;8.242;2023-04-25T10:20:56;3.27;;;2.97;;
8260;SDS011;64115;50.170;8.242;2023-04-25T10:23:26;6.70;;;3.63;;
8260;SDS011;64115;50.170;8.242;2023-04-25T10:25:55;5.97;;;3.57;;
8260;SDS011;64115;50.170;8.242;2023-04-25T10:28:24;5.57;;;2.87;;
8260;SDS011;64115;50.170;8.242;2023-04-25T10:30:58;6.00;;;3.20;;
8260;SDS011;64115;50.170;8.242;2023-04-25T10:36:14;3.10;;;2.80;;
8260;SDS011;64115;50.170;8.242;2023-04-25T10:38:45;6.27;;;3.40;;
8260;SDS011;64115;50.170;8.242;2023-04-25T10:41:13;7.37;;;3.20;;
8260;SDS011;64115;50.170;8.242;2023-04-25T10:43:43;4.13;;;3.30;;
8260;SDS011;64115;50.170;8.242;2023-04-25T10:46:14;6.13;;;3.40;;
8260;SDS011;64115;50.170;8.242;2023-04-25T10:48:47;5.60;;;3.20;;
8260;SDS011;64115;50.170;8.242;2023-04-25T10:51:19;4.20;;;2.90;;
8260;SDS011;64115;50.170;8.242;2023-04-25T10:53:56;4.13;;;2.80;;
8260;SDS011;64115;50.170;8.242;2023-04-25T10:56:25;5.87;;;3.27;;
8260;SDS011;64115;50.170;8.242;2023-04-25T10:59:04;5.80;;;3.00;;
8260;SDS011;64115;50.170;8.242;2023-04-25T11:01:35;4.43;;;3.00;;
8260;SDS011;64115;50.170;8.242;2023-04-25T11:04:04;7.07;;;2.87;;
8260;SDS011;64115;50.170;8.242;2023-04-25T11:06:35;5.97;;;2.73;;
8260;SDS011;64115;50.170;8.242;2023-04-25T11:09:13;6.47;;;2.50;;
8260;SDS011;64115;50.170;8.242;2023-04-25T11:11:40;6.43;;;2.63;;
8260;SDS011;64115;50.170;8.242;2023-04-25T11:14:09;3.17;;;2.50;;
8260;SDS011;64115;50.170;8.242;2023-04-25T11:16:36;5.13;;;2.70;;
8260;SDS011;64115;50.170;8.242;2023-04-25T11:19:03;6.07;;;2.70;;
8260;SDS011;64115;50.170;8.242;2023-04-25T11:21:30;5.37;;;2.93;;
8260;SDS011;64115;50.170;8.242;2023-04-25T11:23:57;3.40;;;2.53;;
8260;SDS011;64115;50.170;8.242;2023-04-25T11:26:26;4.43;;;2.40;;
8260;SDS011;64115;50.170;8.242;2023-04-25T11:28:57;3.60;;;2.43;;
8260;SDS011;64115;50.170;8.242;2023-04-25T11:31:26;5.60;;;3.00;;
8260;SDS011;64115;50.170;8.242;2023-04-25T11:33:53;4.17;;;2.37;;
8260;SDS011;64115;50.170;8.242;2023-04-25T11:36:22;4.63;;;2.50;;
8260;SDS011;64115;50.170;8.242;2023-04-25T11:38:51;4.00;;;2.63;;
8260;SDS011;64115;50.170;8.242;2023-04-25T11:41:18;7.37;;;2.63;;
8260;SDS011;64115;50.170;8.242;2023-04-25T11:43:45;6.40;;;2.80;;
8260;SDS011;64115;50.170;8.242;2023-04-25T11:46:13;5.20;;;2.63;;
8260;SDS011;64115;50.170;8.242;2023-04-25T11:48:42;4.80;;;2.63;;
8260;SDS011;64115;50.170;8.242;2023-04-25T11:51:10;5.40;;;2.47;;
8260;SDS011;64115;50.170;8.242;2023-04-25T11:53:38;2.87;;;2.20;;
8260;SDS011;64115;50.170;8.242;2023-04-25T11:56:09;5.87;;;2.50;;
8260;SDS011;64115;50.170;8.242;2023-04-25T12:01:26;3.97;;;2.17;;
8260;SDS011;64115;50.170;8.242;2023-04-25T12:03:55;9.83;;;2.47;;
8260;SDS011;64115;50.170;8.242;2023-04-25T12:06:25;5.27;;;2.20;;
8260;SDS011;64115;50.170;8.242;2023-04-25T12:09:02;4.57;;;2.53;;
8260;SDS011;64115;50.170;8.242;2023-04-25T12:11:31;3.57;;;2.30;;
8260;SDS011;64115;50.170;8.242;2023-04-25T12:14:01;4.93;;;2.30;;
8260;SDS011;64115;50.170;8.242;2023-04-25T12:16:30;3.33;;;2.20;;
8260;SDS011;64115;50.170;8.242;2023-04-25T12:19:08;3.77;;;2.43;;
8260;SDS011;64115;50.170;8.242;2023-04-25T12:21:36;6.67;;;2.63;;
8260;SDS011;64115;50.170;8.242;2023-04-25T12:24:10;5.90;;;2.37;;
8260;SDS011;64115;50.170;8.242;2023-04-25T12:26:45;7.50;;;2.90;;
8260;SDS011;64115;50.170;8.242;2023-04-25T12:29:17;5.97;;;2.50;;
8260;SDS011;64115;50.170;8.242;2023-04-25T12:31:49;5.23;;;2.50;;
8260;SDS011;64115;50.170;8.242;2023-04-25T12:34:19;4.57;;;2.47;;
8260;SDS011;64115;50.170;8.242;2023-04-25T12:36:46;3.67;;;2.60;;
8260;SDS011;64115;50.170;8.242;2023-04-25T12:39:14;4.50;;;2.50;;
8260;SDS011;64115;50.170;8.242;2023-04-25T12:41:42;4.20;;;2.47;;
8260;SDS011;64115;50.170;8.242;2023-04-25T12:44:09;4.03;;;2.40;;
8260;SDS011;64115;50.170;8.242;2023-04-25T12:46:36;4.40;;;2.20;;
8260;SDS011;64115;50.170;8.242;2023-04-25T12:49:04;5.20;;;2.40;;
8260;SDS011;64115;50.170;8.242;2023-04-25T12:51:34;3.63;;;2.23;;
8260;SDS011;64115;50.170;8.242;2023-04-25T12:54:01;4.63;;;2.60;;
8260;SDS011;64115;50.170;8.242;2023-04-25T12:56:29;5.13;;;2.40;;
8260;SDS011;64115;50.170;8.242;2023-04-25T12:58:56;6.00;;;2.60;;
8260;SDS011;64115;50.170;8.242;2023-04-25T13:01:24;4.77;;;2.20;;
8260;SDS011;64115;50.170;8.242;2023-04-25T13:03:51;4.20;;;2.77;;
8260;SDS011;64115;50.170;8.242;2023-04-25T13:06:19;4.83;;;2.67;;
8260;SDS011;64115;50.170;8.242;2023-04-25T13:08:48;5.73;;;2.60;;
8260;SDS011;64115;50.170;8.242;2023-04-25T13:11:15;3.97;;;2.70;;
8260;SDS011;64115;50.170;8.242;2023-04-25T13:13:43;5.97;;;2.77;;
8260;SDS011;64115;50.170;8.242;2023-04-25T13:16:10;3.37;;;2.40;;
8260;SDS011;64115;50.170;8.242;2023-04-25T13:18:39;3.07;;;2.07;;
8260;SDS011;64115;50.170;8.242;2023-04-25T13:21:06;6.53;;;2.80;;
8260;SDS011;64115;50.170;8.242;2023-04-25T13:23:35;5.00;;;2.60;;
8260;SDS011;64115;50.170;8.242;2023-04-25T13:26:04;3.90;;;2.23;;
8260;SDS011;64115;50.170;8.242;2023-04-25T13:28:31;5.03;;;2.63;;
8260;SDS011;64115;50.170;8.242;2023-04-25T13:30:58;3.00;;;2.30;;
8260;SDS011;64115;50.170;8.242;2023-04-25T13:33:25;4.40;;;2.57;;
8260;SDS011;64115;50.170;8.242;2023-04-25T13:35:52;7.93;;;2.50;;
8260;SDS011;64115;50.170;8.242;2023-04-25T13:38:21;5.13;;;2.50;;
8260;SDS011;64115;50.170;8.242;2023-04-25T13:40:48;4.83;;;2.40;;
8260;SDS011;64115;50.170;8.242;2023-04-25T13:43:19;3.43;;;2.17;;
8260;SDS011;64115;50.170;8.242;2023-04-25T13:45:47;3.73;;;2.50;;
8260;SDS011;64115;50.170;8.242;2023-04-25T13:48:14;5.50;;;2.63;;
8260;SDS011;64115;50.170;8.242;2023-04-25T13:50:41;4.10;;;1.97;;
8260;SDS011;64115;50.170;8.242;2023-04-25T13:53:08;5.77;;;2.23;;
8260;SDS011;64115;50.170;8.242;2023-04-25T13:55:35;3.57;;;2.20;;
8260;SDS011;64115;50.170;8.242;2023-04-25T13:58:03;3.47;;;2.07;;
8260;SDS011;64115;50.170;8.242;2023-04-25T14:00:35;3.30;;;2.00;;
8260;SDS011;64115;50.170;8.242;2023-04-25T14:03:05;2.30;;;1.90;;
8260;SDS011;64115;50.170;8.242;2023-04-25T14:05:33;2.53;;;1.90;;
8260;SDS011;64115;50.170;8.242;2023-04-25T14:08:04;5.90;;;2.20;;
8260;SDS011;64115;50.170;8.242;2023-04-25T14:10:32;3.17;;;1.93;;
8260;SDS011;64115;50.170;8.242;2023-04-25T14:12:59;3.63;;;2.10;;
8260;SDS011;64115;50.170;8.242;2023-04-25T14:15:28;5.20;;;2.03;;
8260;SDS011;64115;50.170;8.242;2023-04-25T14:17:58;2.57;;;1.70;;
8260;SDS011;64115;50.170;8.242;2023-04-25T14:20:26;2.90;;;1.97;;
8260;SDS011;64115;50.170;8.242;2023-04-25T14:22:54;3.07;;;2.00;;
8260;SDS011;64115;50.170;8.242;2023-04-25T14:25:23;3.83;;;2.20;;
8260;SDS011;64115;50.170;8.242;2023-04-25T14:27:50;9.13;;;2.37;;
8260;SDS011;64115;50.170;8.242;2023-04-25T14:30:17;5.97;;;2.20;;
8260;SDS011;64115;50.170;8.242;2023-04-25T14:32:45;4.63;;;2.00;;
8260;SDS011;64115;50.170;8.242;2023-04-25T14:35:13;5.47;;;2.23;;
8260;SDS011;64115;50.170;8.242;2023-04-25T14:37:41;2.57;;;1.70;;
8260;SDS011;64115;50.170;8.242;2023-04-25T14:40:08;3.73;;;1.90;;
8260;SDS011;64115;50.170;8.242;2023-04-25T14:42:37;5.40;;;2.20;;
8260;SDS011;64115;50.170;8.242;2023-04-25T14:45:05;5.90;;;2.40;;
8260;SDS011;64115;50.170;8.242;2023-04-25T14:47:33;5.77;;;2.43;;
8260;SDS011;64115;50.170;8.242;2023-04-25T14:50:01;4.57;;;2.30;;
8260;SDS011;64115;50.170;8.242;2023-04-25T14:52:31;4.83;;;2.37;;
8260;SDS011;64115;50.170;8.242;2023-04-25T14:54:58;5.93;;;2.23;;
8260;SDS011;64115;50.170;8.242;2023-04-25T14:57:29;4.43;;;2.10;;
8260;SDS011;64115;50.170;8.242;2023-04-25T14:59:56;4.73;;;2.10;;
8260;SDS011;64115;50.170;8.242;2023-04-25T15:02:23;7.10;;;2.23;;
8260;SDS011;64115;50.170;8.242;2023-04-25T15:04:51;5.77;;;1.90;;
8260;SDS011;64115;50.170;8.242;2023-04-25T15:07:18;8.57;;;2.10;;
8260;SDS011;64115;50.170;8.242;2023-04-25T15:09:47;4.43;;;2.00;;